sensor_id;sensor_type;location;lat;lon;timestamp;pressure;altitude;pressure_sealevel;temperature;humidity
70925;BME280;58577;52.410;13.242;2023-01-27T00:02:11;-12301.75;;;-1.58;100.00
70925;BME280;58577;52.410;13.242;2023-01-27T00:04:58;-12302.09;;;-1.56;100.00
70925;BME280;58577;52.410;13.242;2023-01-27T00:07:44;-12305.38;;;-1.38;100.00
70925;BME280;58577;52.410;13.242;2023-01-27T00:10:34;-12302.66;;;-1.53;100.00
70925;BME280;58577;52.410;13.242;2023-01-27T00:13:20;-12301.47;;;-1.60;100.00
70925;BME280;58577;52.410;13.242;2023-01-27T00:16:11;-12305.13;;;-1.39;100.00
70925;BME280;58577;52.410;13.242;2023-01-27T00:18:57;-12304.38;;;-1.43;100.00
70925;BME280;58577;52.410;13.242;2023-01-27T00:21:43;-12303.19;;;-1.50;100.00
70925;BME280;58577;52.410;13.242;2023-01-27T00:24:47;-12303.84;;;-1.46;100.00
70925;BME280;58577;52.410;13.242;2023-01-27T00:27:33;-12302.66;;;-1.53;100.00
70925;BME280;58577;52.410;13.242;2023-01-27T00:30:19;-12302.94;;;-1.51;100.00
70925;BME280;58577;52.410;13.242;2023-01-27T00:33:05;-12303.56;;;-1.48;100.00
70925;BME280;58577;52.410;13.242;2023-01-27T00:36:09;-12302.66;;;-1.53;100.00
70925;BME280;58577;52.410;13.242;2023-01-27T00:38:55;-12302.66;;;-1.53;100.00
70925;BME280;58577;52.410;13.242;2023-01-27T00:41:41;-12305.75;;;-1.35;100.00
70925;BME280;58577;52.410;13.242;2023-01-27T00:44:27;-12304.13;;;-1.45;100.00
70925;BME280;58577;52.410;13.242;2023-01-27T00:47:15;-12303.84;;;-1.46;100.00
70925;BME280;58577;52.410;13.242;2023-01-27T00:50:01;-12302.47;;;-1.54;100.00
70925;BME280;58577;52.410;13.242;2023-01-27T00:52:47;-12306.38;;;-1.32;100.00
70925;BME280;58577;52.410;13.242;2023-01-27T00:55:33;-12303.94;;;-1.46;100.00
70925;BME280;58577;52.410;13.242;2023-01-27T00:58:19;-12304.13;;;-1.45;100.00
70925;BME280;58577;52.410;13.242;2023-01-27T01:01:14;-12303.28;;;-1.49;100.00
70925;BME280;58577;52.410;13.242;2023-01-27T01:04:00;-12303.03;;;-1.51;100.00
70925;BME280;58577;52.410;13.242;2023-01-27T01:06:46;-12305.03;;;-1.40;100.00
70925;BME280;58577;52.410;13.242;2023-01-27T01:09:32;-12303.94;;;-1.46;100.00
70925;BME280;58577;52.410;13.242;2023-01-27T01:12:18;-12305.84;;;-1.35;100.00
70925;BME280;58577;52.410;13.242;2023-01-27T01:15:04;-12305.75;;;-1.35;100.00
70925;BME280;58577;52.410;13.242;2023-01-27T01:17:50;-12307.31;;;-1.27;100.00
70925;BME280;58577;52.410;13.242;2023-01-27T01:20:38;-12305.75;;;-1.35;100.00
70925;BME280;58577;52.410;13.242;2023-01-27T01:23:24;-12305.75;;;-1.35;100.00
70925;BME280;58577;52.410;13.242;2023-01-27T01:26:11;-12305.56;;;-1.36;100.00
70925;BME280;58577;52.410;13.242;2023-01-27T01:28:57;-12305.66;;;-1.36;100.00
70925;BME280;58577;52.410;13.242;2023-01-27T01:31:43;-12306.84;;;-1.29;100.00
70925;BME280;58577;52.410;13.242;2023-01-27T01:34:29;-12307.84;;;-1.24;100.00
70925;BME280;58577;52.410;13.242;2023-01-27T01:37:14;-12308.47;;;-1.20;100.00
70925;BME280;58577;52.410;13.242;2023-01-27T01:40:00;-12306.84;;;-1.29;100.00
70925;BME280;58577;52.410;13.242;2023-01-27T01:48:42;-12308.56;;;-1.20;100.00
70925;BME280;58577;52.410;13.242;2023-01-27T01:51:40;-12309.94;;;-1.12;100.00
70925;BME280;58577;52.410;13.242;2023-01-27T01:54:37;-12307.84;;;-1.24;100.00
70925;BME280;58577;52.410;13.242;2023-01-27T01:57:32;-12308.66;;;-1.19;100.00
70925;BME280;58577;52.410;13.242;2023-01-27T02:00:22;-12308.03;;;-1.23;100.00
70925;BME280;58577;52.410;13.242;2023-01-27T02:03:09;-12307.75;;;-1.24;100.00
70925;BME280;58577;52.410;13.242;2023-01-27T02:05:55;-12307.41;;;-1.26;100.00
70925;BME280;58577;52.410;13.242;2023-01-27T02:08:43;-12306.66;;;-1.30;100.00
70925;BME280;58577;52.410;13.242;2023-01-27T02:11:29;-12308.03;;;-1.23;100.00
70925;BME280;58577;52.410;13.242;2023-01-27T02:14:16;-12312.31;;;-0.98;100.00
70925;BME280;58577;52.410;13.242;2023-01-27T02:17:03;-12309.59;;;-1.14;100.00
70925;BME280;58577;52.410;13.242;2023-01-27T02:20:07;-12311.50;;;-1.03;100.00
70925;BME280;58577;52.410;13.242;2023-01-27T02:26:43;-12310.41;;;-1.09;100.00
70925;BME280;58577;52.410;13.242;2023-01-27T02:29:21;-12313.69;;;-0.91;100.00
70925;BME280;58577;52.410;13.242;2023-01-27T02:32:28;-12310.94;;;-1.06;100.00
70925;BME280;58577;52.410;13.242;2023-01-27T02:35:19;-12311.41;;;-1.04;100.00
70925;BME280;58577;52.410;13.242;2023-01-27T02:38:08;-12309.13;;;-1.16;100.00
70925;BME280;58577;52.410;13.242;2023-01-27T02:40:59;-12310.66;;;-1.08;100.00
70925;BME280;58577;52.410;13.242;2023-01-27T02:43:48;-12311.41;;;-1.04;100.00
70925;BME280;58577;52.410;13.242;2023-01-27T02:46:35;-12310.66;;;-1.08;100.00
70925;BME280;58577;52.410;13.242;2023-01-27T02:49:21;-12310.13;;;-1.11;100.00
70925;BME280;58577;52.410;13.242;2023-01-27T02:52:07;-12313.03;;;-0.94;100.00
70925;BME280;58577;52.410;13.242;2023-01-27T02:54:53;-12311.31;;;-1.04;100.00
70925;BME280;58577;52.410;13.242;2023-01-27T02:57:38;-12311.59;;;-1.03;100.00
70925;BME280;58577;52.410;13.242;2023-01-27T03:00:56;-12313.50;;;-0.92;100.00
70925;BME280;58577;52.410;13.242;2023-01-27T03:03:42;-12313.22;;;-0.93;100.00
70925;BME280;58577;52.410;13.242;2023-01-27T03:06:37;-12310.13;;;-1.11;100.00
70925;BME280;58577;52.410;13.242;2023-01-27T03:09:38;-12311.69;;;-1.02;100.00
70925;BME280;58577;52.410;13.242;2023-01-27T03:12:24;-12311.59;;;-1.03;100.00
70925;BME280;58577;52.410;13.242;2023-01-27T03:15:10;-12309.13;;;-1.16;100.00
70925;BME280;58577;52.410;13.242;2023-01-27T03:18:15;-12309.31;;;-1.15;100.00
70925;BME280;58577;52.410;13.242;2023-01-27T03:21:05;-12309.03;;;-1.17;100.00
70925;BME280;58577;52.410;13.242;2023-01-27T03:23:52;-12308.03;;;-1.23;100.00
70925;BME280;58577;52.410;13.242;2023-01-27T03:26:41;-12307.66;;;-1.25;100.00
70925;BME280;58577;52.410;13.242;2023-01-27T03:29:28;-12307.75;;;-1.24;100.00
70925;BME280;58577;52.410;13.242;2023-01-27T03:32:33;-12308.84;;;-1.18;100.00
70925;BME280;58577;52.410;13.242;2023-01-27T03:35:42;-12310.84;;;-1.07;100.00
70925;BME280;58577;52.410;13.242;2023-01-27T03:38:33;-12309.31;;;-1.15;100.00
70925;BME280;58577;52.410;13.242;2023-01-27T03:41:37;-12307.75;;;-1.24;100.00
70925;BME280;58577;52.410;13.242;2023-01-27T03:44:44;-12311.50;;;-1.03;100.00
70925;BME280;58577;52.410;13.242;2023-01-27T03:47:50;-12309.41;;;-1.15;100.00
70925;BME280;58577;52.410;13.242;2023-01-27T03:50:36;-12308.84;;;-1.18;100.00
70925;BME280;58577;52.410;13.242;2023-01-27T03:53:22;-12307.94;;;-1.23;100.00
70925;BME280;58577;52.410;13.242;2023-01-27T03:56:07;-12307.84;;;-1.24;100.00
70925;BME280;58577;52.410;13.242;2023-01-27T03:58:53;-12309.03;;;-1.17;100.00
70925;BME280;58577;52.410;13.242;2023-01-27T04:01:39;-12310.84;;;-1.07;100.00
70925;BME280;58577;52.410;13.242;2023-01-27T04:04:25;-12309.94;;;-1.12;100.00
70925;BME280;58577;52.410;13.242;2023-01-27T04:07:29;-12310.03;;;-1.11;100.00
70925;BME280;58577;52.410;13.242;2023-01-27T04:10:15;-12309.66;;;-1.13;100.00
70925;BME280;58577;52.410;13.242;2023-01-27T04:13:01;-12309.75;;;-1.13;100.00
70925;BME280;58577;52.410;13.242;2023-01-27T04:15:47;-12308.66;;;-1.19;100.00
70925;BME280;58577;52.410;13.242;2023-01-27T04:18:32;-12308.13;;;-1.22;100.00
70925;BME280;58577;52.410;13.242;2023-01-27T04:21:18;-12310.50;;;-1.09;100.00
70925;BME280;58577;52.410;13.242;2023-01-27T04:24:04;-12312.03;;;-1.00;100.00
70925;BME280;58577;52.410;13.242;2023-01-27T04:27:04;-12311.22;;;-1.05;100.00
70925;BME280;58577;52.410;13.242;2023-01-27T04:29:51;-12309.59;;;-1.14;100.00
70925;BME280;58577;52.410;13.242;2023-01-27T04:32:36;-12310.56;;;-1.08;100.00
70925;BME280;58577;52.410;13.242;2023-01-27T04:35:22;-12311.94;;;-1.01;100.00
70925;BME280;58577;52.410;13.242;2023-01-27T04:38:08;-12310.66;;;-1.08;100.00
70925;BME280;58577;52.410;13.242;2023-01-27T04:40:54;-12309.03;;;-1.17;100.00
70925;BME280;58577;52.410;13.242;2023-01-27T04:43:40;-12309.75;;;-1.13;100.00
70925;BME280;58577;52.410;13.242;2023-01-27T04:46:27;-12309.22;;;-1.16;100.00
70925;BME280;58577;52.410;13.242;2023-01-27T04:49:13;-12310.50;;;-1.09;100.00
70925;BME280;58577;52.410;13.242;2023-01-27T04:51:59;-12310.50;;;-1.09;100.00
70925;BME280;58577;52.410;13.242;2023-01-27T04:54:45;-12308.94;;;-1.17;100.00
70925;BME280;58577;52.410;13.242;2023-01-27T04:57:30;-12311.22;;;-1.05;100.00
70925;BME280;58577;52.410;13.242;2023-01-27T05:00:16;-12311.03;;;-1.06;100.00
70925;BME280;58577;52.410;13.242;2023-01-27T05:03:02;-12311.03;;;-1.06;100.00
70925;BME280;58577;52.410;13.242;2023-01-27T05:05:50;-12310.41;;;-1.09;100.00
70925;BME280;58577;52.410;13.242;2023-01-27T05:08:37;-12310.84;;;-1.07;100.00
70925;BME280;58577;52.410;13.242;2023-01-27T05:11:23;-12309.94;;;-1.12;100.00
70925;BME280;58577;52.410;13.242;2023-01-27T05:14:08;-12310.75;;;-1.07;100.00
70925;BME280;58577;52.410;13.242;2023-01-27T05:16:54;-12309.59;;;-1.14;100.00
70925;BME280;58577;52.410;13.242;2023-01-27T05:19:41;-12309.59;;;-1.14;100.00
70925;BME280;58577;52.410;13.242;2023-01-27T05:22:26;-12309.59;;;-1.14;100.00
70925;BME280;58577;52.410;13.242;2023-01-27T05:25:12;-12310.56;;;-1.08;100.00
70925;BME280;58577;52.410;13.242;2023-01-27T05:27:58;-12309.84;;;-1.12;100.00
70925;BME280;58577;52.410;13.242;2023-01-27T05:30:44;-12309.22;;;-1.16;100.00
70925;BME280;58577;52.410;13.242;2023-01-27T05:33:30;-12309.59;;;-1.14;100.00
70925;BME280;58577;52.410;13.242;2023-01-27T05:36:18;-12310.22;;;-1.10;100.00
70925;BME280;58577;52.410;13.242;2023-01-27T05:39:04;-12309.84;;;-1.12;100.00
70925;BME280;58577;52.410;13.242;2023-01-27T05:41:50;-12310.03;;;-1.11;100.00
70925;BME280;58577;52.410;13.242;2023-01-27T05:44:36;-12312.50;;;-0.97;100.00
70925;BME280;58577;52.410;13.242;2023-01-27T05:47:21;-12311.41;;;-1.04;100.00
70925;BME280;58577;52.410;13.242;2023-01-27T05:50:08;-12311.22;;;-1.05;100.00
70925;BME280;58577;52.410;13.242;2023-01-27T05:52:53;-12309.94;;;-1.12;100.00
70925;BME280;58577;52.410;13.242;2023-01-27T05:55:42;-12310.03;;;-1.11;100.00
70925;BME280;58577;52.410;13.242;2023-01-27T05:58:28;-12309.41;;;-1.15;100.00
70925;BME280;58577;52.410;13.242;2023-01-27T06:01:22;-12309.22;;;-1.16;100.00
70925;BME280;58577;52.410;13.242;2023-01-27T06:04:09;-12309.50;;;-1.14;100.00
70925;BME280;58577;52.410;13.242;2023-01-27T06:06:55;-12310.31;;;-1.10;100.00
70925;BME280;58577;52.410;13.242;2023-01-27T06:09:40;-12310.66;;;-1.08;100.00
70925;BME280;58577;52.410;13.242;2023-01-27T06:12:26;-12310.41;;;-1.09;100.00
70925;BME280;58577;52.410;13.242;2023-01-27T06:15:12;-12310.66;;;-1.08;100.00
70925;BME280;58577;52.410;13.242;2023-01-27T06:17:58;-12310.50;;;-1.09;100.00
70925;BME280;58577;52.410;13.242;2023-01-27T06:20:44;-12312.84;;;-0.95;100.00
70925;BME280;58577;52.410;13.242;2023-01-27T06:23:30;-12311.59;;;-1.03;100.00
70925;BME280;58577;52.410;13.242;2023-01-27T06:26:18;-12311.13;;;-1.05;100.00
70925;BME280;58577;52.410;13.242;2023-01-27T06:29:04;-12310.84;;;-1.07;100.00
70925;BME280;58577;52.410;13.242;2023-01-27T06:31:50;-12313.41;;;-0.92;100.00
70925;BME280;58577;52.410;13.242;2023-01-27T06:34:35;-12311.22;;;-1.05;100.00
70925;BME280;58577;52.410;13.242;2023-01-27T06:37:21;-12311.94;;;-1.01;100.00
70925;BME280;58577;52.410;13.242;2023-01-27T06:40:07;-12310.84;;;-1.07;100.00
70925;BME280;58577;52.410;13.242;2023-01-27T06:42:54;-12311.13;;;-1.05;100.00
70925;BME280;58577;52.410;13.242;2023-01-27T06:45:40;-12310.66;;;-1.08;100.00
70925;BME280;58577;52.410;13.242;2023-01-27T06:48:26;-12313.69;;;-0.91;100.00
70925;BME280;58577;52.410;13.242;2023-01-27T06:51:12;-12314.69;;;-0.85;100.00
70925;BME280;58577;52.410;13.242;2023-01-27T06:53:58;-12315.41;;;-0.81;100.00
70925;BME280;58577;52.410;13.242;2023-01-27T06:56:44;-12315.31;;;-0.82;100.00
70925;BME280;58577;52.410;13.242;2023-01-27T06:59:29;-12318.69;;;-0.63;100.00
70925;BME280;58577;52.410;13.242;2023-01-27T07:02:15;-12314.69;;;-0.85;100.00
70925;BME280;58577;52.410;13.242;2023-01-27T07:05:01;-12314.69;;;-0.85;100.00
70925;BME280;58577;52.410;13.242;2023-01-27T07:07:47;-12315.94;;;-0.78;100.00
70925;BME280;58577;52.410;13.242;2023-01-27T07:10:33;-12315.94;;;-0.78;100.00
70925;BME280;58577;52.410;13.242;2023-01-27T07:13:19;-12314.31;;;-0.87;100.00
70925;BME280;58577;52.410;13.242;2023-01-27T07:16:05;-12314.41;;;-0.87;100.00
70925;BME280;58577;52.410;13.242;2023-01-27T07:18:51;-12314.31;;;-0.87;100.00
70925;BME280;58577;52.410;13.242;2023-01-27T07:21:36;-12314.50;;;-0.86;100.00
70925;BME280;58577;52.410;13.242;2023-01-27T07:24:25;-12317.22;;;-0.71;100.00
70925;BME280;58577;52.410;13.242;2023-01-27T07:27:11;-12315.41;;;-0.81;100.00
70925;BME280;58577;52.410;13.242;2023-01-27T07:29:57;-12316.59;;;-0.74;100.00
70925;BME280;58577;52.410;13.242;2023-01-27T07:32:42;-12316.78;;;-0.73;100.00
70925;BME280;58577;52.410;13.242;2023-01-27T07:35:28;-12316.88;;;-0.73;100.00
70925;BME280;58577;52.410;13.242;2023-01-27T07:38:14;-12318.88;;;-0.62;100.00
70925;BME280;58577;52.410;13.242;2023-01-27T07:41:03;-12317.94;;;-0.67;100.00
70925;BME280;58577;52.410;13.242;2023-01-27T07:43:49;-12319.31;;;-0.59;100.00
70925;BME280;58577;52.410;13.242;2023-01-27T07:46:37;-12319.78;;;-0.56;100.00
70925;BME280;58577;52.410;13.242;2023-01-27T07:49:22;-12319.69;;;-0.57;100.00
70925;BME280;58577;52.410;13.242;2023-01-27T07:52:08;-12320.22;;;-0.54;100.00
70925;BME280;58577;52.410;13.242;2023-01-27T07:54:54;-12321.88;;;-0.45;100.00
70925;BME280;58577;52.410;13.242;2023-01-27T07:57:40;-12325.59;;;-0.24;100.00
70925;BME280;58577;52.410;13.242;2023-01-27T08:00:26;-12323.78;;;-0.34;100.00
70925;BME280;58577;52.410;13.242;2023-01-27T08:03:23;-12323.13;;;-0.37;100.00
70925;BME280;58577;52.410;13.242;2023-01-27T08:06:11;-12323.41;;;-0.36;100.00
70925;BME280;58577;52.410;13.242;2023-01-27T08:08:57;-12327.06;;;-0.15;100.00
70925;BME280;58577;52.410;13.242;2023-01-27T08:11:43;-12327.59;;;-0.12;100.00
70925;BME280;58577;52.410;13.242;2023-01-27T08:14:29;-12329.88;;;0.01;100.00
70925;BME280;58577;52.410;13.242;2023-01-27T08:17:14;-12331.22;;;0.08;100.00
70925;BME280;58577;52.410;13.242;2023-01-27T08:20:00;-12333.97;;;0.24;100.00
70925;BME280;58577;52.410;13.242;2023-01-27T08:22:46;-12333.31;;;0.20;100.00
70925;BME280;58577;52.410;13.242;2023-01-27T08:25:32;-12336.22;;;0.36;100.00
70925;BME280;58577;52.410;13.242;2023-01-27T08:28:19;-12336.88;;;0.40;100.00
70925;BME280;58577;52.410;13.242;2023-01-27T08:31:14;-12338.97;;;0.52;100.00
70925;BME280;58577;52.410;13.242;2023-01-27T08:34:01;-12340.31;;;0.59;100.00
70925;BME280;58577;52.410;13.242;2023-01-27T08:36:46;-12342.50;;;0.72;100.00
70925;BME280;58577;52.410;13.242;2023-01-27T08:39:34;-12342.31;;;0.71;100.00
70925;BME280;58577;52.410;13.242;2023-01-27T08:42:19;-12341.97;;;0.69;100.00
70925;BME280;58577;52.410;13.242;2023-01-27T08:45:06;-12343.78;;;0.79;100.00
70925;BME280;58577;52.410;13.242;2023-01-27T08:47:53;-12343.78;;;0.79;100.00
70925;BME280;58577;52.410;13.242;2023-01-27T08:50:39;-12345.50;;;0.89;100.00
70925;BME280;58577;52.410;13.242;2023-01-27T08:53:29;-12346.22;;;0.93;100.00
70925;BME280;58577;52.410;13.242;2023-01-27T08:56:15;-12347.03;;;0.97;100.00
70925;BME280;58577;52.410;13.242;2023-01-27T08:59:00;-12346.41;;;0.94;100.00
70925;BME280;58577;52.410;13.242;2023-01-27T09:01:46;-12346.84;;;0.96;100.00
70925;BME280;58577;52.410;13.242;2023-01-27T09:04:32;-12347.94;;;1.03;100.00
70925;BME280;58577;52.410;13.242;2023-01-27T09:07:18;-12348.69;;;1.07;100.00
70925;BME280;58577;52.410;13.242;2023-01-27T09:10:04;-12347.75;;;1.02;100.00
70925;BME280;58577;52.410;13.242;2023-01-27T09:12:50;-12348.50;;;1.06;100.00
70925;BME280;58577;52.410;13.242;2023-01-27T09:15:36;-12352.31;;;1.27;100.00
70925;BME280;58577;52.410;13.242;2023-01-27T09:18:22;-12351.03;;;1.20;100.00
70925;BME280;58577;52.410;13.242;2023-01-27T09:21:08;-12353.41;;;1.33;100.00
70925;BME280;58577;52.410;13.242;2023-01-27T09:23:54;-12351.94;;;1.25;100.00
70925;BME280;58577;52.410;13.242;2023-01-27T09:26:40;-12353.56;;;1.34;100.00
70925;BME280;58577;52.410;13.242;2023-01-27T09:29:26;-12354.38;;;1.39;100.00
70925;BME280;58577;52.410;13.242;2023-01-27T09:32:12;-12353.03;;;1.31;100.00
70925;BME280;58577;52.410;13.242;2023-01-27T09:34:58;-12355.31;;;1.44;100.00
70925;BME280;58577;52.410;13.242;2023-01-27T09:37:51;-12356.28;;;1.50;100.00
70925;BME280;58577;52.410;13.242;2023-01-27T09:47:23;-12355.22;;;1.44;100.00
70925;BME280;58577;52.410;13.242;2023-01-27T09:50:43;-12356.84;;;1.53;100.00
70925;BME280;58577;52.410;13.242;2023-01-27T09:53:48;-12356.56;;;1.51;100.00
70925;BME280;58577;52.410;13.242;2023-01-27T09:57:17;-12357.84;;;1.59;100.00
70925;BME280;58577;52.410;13.242;2023-01-27T10:00:22;-12359.84;;;1.70;100.00
70925;BME280;58577;52.410;13.242;2023-01-27T10:27:47;-12360.47;;;1.73;100.00
70925;BME280;58577;52.410;13.242;2023-01-27T10:30:35;-12360.84;;;1.75;100.00
70925;BME280;58577;52.410;13.242;2023-01-27T10:33:40;-12364.28;;;1.95;100.00
70925;BME280;58577;52.410;13.242;2023-01-27T10:43:43;-12364.72;;;1.98;100.00
70925;BME280;58577;52.410;13.242;2023-01-27T10:50:02;-12364.56;;;1.96;100.00
70925;BME280;58577;52.410;13.242;2023-01-27T10:53:00;-12365.09;;;2.00;100.00
70925;BME280;58577;52.410;13.242;2023-01-27T10:56:03;-12364.81;;;1.98;100.00
70925;BME280;58577;52.410;13.242;2023-01-27T10:59:17;-12365.91;;;2.04;100.00
70925;BME280;58577;52.410;13.242;2023-01-27T11:05:20;-12369.25;;;2.23;100.00
70925;BME280;58577;52.410;13.242;2023-01-27T11:08:13;-12368.34;;;2.18;100.00
70925;BME280;58577;52.410;13.242;2023-01-27T11:11:04;-12366.63;;;2.08;100.00
70925;BME280;58577;52.410;13.242;2023-01-27T11:14:31;-12367.34;;;2.12;100.00
70925;BME280;58577;52.410;13.242;2023-01-27T11:17:20;-12366.63;;;2.08;100.00
70925;BME280;58577;52.410;13.242;2023-01-27T11:23:18;-12367.72;;;2.14;100.00
70925;BME280;58577;52.410;13.242;2023-01-27T11:26:13;-12366.81;;;2.09;100.00
70925;BME280;58577;52.410;13.242;2023-01-27T11:32:47;-12367.34;;;2.12;100.00
70925;BME280;58577;52.410;13.242;2023-01-27T11:35:35;-12368.53;;;2.19;100.00
70925;BME280;58577;52.410;13.242;2023-01-27T11:38:22;-12369.72;;;2.26;100.00
70925;BME280;58577;52.410;13.242;2023-01-27T11:41:07;-12370.81;;;2.32;100.00
70925;BME280;58577;52.410;13.242;2023-01-27T11:43:53;-12372.88;;;2.44;100.00
70925;BME280;58577;52.410;13.242;2023-01-27T11:46:39;-12372.16;;;2.40;100.00
70925;BME280;58577;52.410;13.242;2023-01-27T11:49:37;-12375.25;;;2.57;100.00
70925;BME280;58577;52.410;13.242;2023-01-27T11:52:27;-12373.06;;;2.45;100.00
70925;BME280;58577;52.410;13.242;2023-01-27T12:01:24;-12376.41;;;2.64;100.00
70925;BME280;58577;52.410;13.242;2023-01-27T12:07:11;-12376.25;;;2.63;100.00
70925;BME280;58577;52.410;13.242;2023-01-27T12:10:00;-12375.97;;;2.61;100.00
70925;BME280;58577;52.410;13.242;2023-01-27T12:12:45;-12374.88;;;2.55;100.00
70925;BME280;58577;52.410;13.242;2023-01-27T12:15:32;-12372.97;;;2.44;100.00
70925;BME280;58577;52.410;13.242;2023-01-27T12:18:18;-12372.78;;;2.43;100.00
70925;BME280;58577;52.410;13.242;2023-01-27T12:21:06;-12372.97;;;2.44;100.00
70925;BME280;58577;52.410;13.242;2023-01-27T12:23:54;-12373.97;;;2.50;100.00
70925;BME280;58577;52.410;13.242;2023-01-27T12:26:43;-12373.63;;;2.48;100.00
70925;BME280;58577;52.410;13.242;2023-01-27T12:29:39;-12372.72;;;2.43;100.00
70925;BME280;58577;52.410;13.242;2023-01-27T12:32:43;-12372.44;;;2.41;100.00
70925;BME280;58577;52.410;13.242;2023-01-27T12:35:33;-12372.53;;;2.42;100.00
70925;BME280;58577;52.410;13.242;2023-01-27T12:38:21;-12371.81;;;2.38;100.00
70925;BME280;58577;52.410;13.242;2023-01-27T12:41:08;-12371.25;;;2.34;100.00
70925;BME280;58577;52.410;13.242;2023-01-27T12:44:17;-12371.91;;;2.38;100.00
70925;BME280;58577;52.410;13.242;2023-01-27T12:47:19;-12370.44;;;2.30;100.00
70925;BME280;58577;52.410;13.242;2023-01-27T12:50:31;-12369.44;;;2.24;100.00
70925;BME280;58577;52.410;13.242;2023-01-27T12:53:19;-12368.34;;;2.18;100.00
70925;BME280;58577;52.410;13.242;2023-01-27T12:56:21;-12369.19;;;2.23;100.00
70925;BME280;58577;52.410;13.242;2023-01-27T12:59:13;-12368.91;;;2.21;100.00
70925;BME280;58577;52.410;13.242;2023-01-27T13:02:02;-12367.72;;;2.14;100.00
70925;BME280;58577;52.410;13.242;2023-01-27T13:05:03;-12367.72;;;2.14;100.00
70925;BME280;58577;52.410;13.242;2023-01-27T13:07:50;-12368.44;;;2.19;100.00
70925;BME280;58577;52.410;13.242;2023-01-27T13:10:37;-12366.09;;;2.05;100.00
70925;BME280;58577;52.410;13.242;2023-01-27T13:13:27;-12363.00;;;1.88;100.00
70925;BME280;58577;52.410;13.242;2023-01-27T13:19:16;-12363.38;;;1.90;100.00
70925;BME280;58577;52.410;13.242;2023-01-27T13:22:06;-12364.56;;;1.96;100.00
70925;BME280;58577;52.410;13.242;2023-01-27T13:24:59;-12363.56;;;1.91;100.00
70925;BME280;58577;52.410;13.242;2023-01-27T13:27:49;-12363.72;;;1.92;100.00
70925;BME280;58577;52.410;13.242;2023-01-27T13:30:45;-12363.38;;;1.90;100.00
70925;BME280;58577;52.410;13.242;2023-01-27T13:33:44;-12363.56;;;1.91;100.00
70925;BME280;58577;52.410;13.242;2023-01-27T13:36:36;-12365.28;;;2.01;100.00
70925;BME280;58577;52.410;13.242;2023-01-27T13:42:37;-12361.38;;;1.79;100.00
70925;BME280;58577;52.410;13.242;2023-01-27T13:45:34;-12361.28;;;1.78;100.00
70925;BME280;58577;52.410;13.242;2023-01-27T13:48:39;-12361.81;;;1.81;100.00
70925;BME280;58577;52.410;13.242;2023-01-27T13:51:28;-12362.81;;;1.87;100.00
70925;BME280;58577;52.410;13.242;2023-01-27T13:54:14;-12362.28;;;1.84;100.00
70925;BME280;58577;52.410;13.242;2023-01-27T14:00:11;-12362.47;;;1.85;100.00
70925;BME280;58577;52.410;13.242;2023-01-27T14:07:01;-12361.75;;;1.81;100.00
70925;BME280;58577;52.410;13.242;2023-01-27T14:10:05;-12360.84;;;1.75;100.00
70925;BME280;58577;52.410;13.242;2023-01-27T14:16:05;-12360.09;;;1.71;100.00
70925;BME280;58577;52.410;13.242;2023-01-27T14:22:08;-12361.56;;;1.80;100.00
70925;BME280;58577;52.410;13.242;2023-01-27T14:25:00;-12363.38;;;1.90;100.00
70925;BME280;58577;52.410;13.242;2023-01-27T14:28:00;-12362.75;;;1.86;100.00
70925;BME280;58577;52.410;13.242;2023-01-27T14:30:54;-12361.81;;;1.81;100.00
70925;BME280;58577;52.410;13.242;2023-01-27T14:37:29;-12361.38;;;1.79;100.00
70925;BME280;58577;52.410;13.242;2023-01-27T14:40:28;-12362.56;;;1.85;100.00
70925;BME280;58577;52.410;13.242;2023-01-27T14:43:36;-12361.81;;;1.81;100.00
70925;BME280;58577;52.410;13.242;2023-01-27T14:46:53;-12364.72;;;1.98;100.00
70925;BME280;58577;52.410;13.242;2023-01-27T14:49:51;-12364.00;;;1.93;100.00
70925;BME280;58577;52.410;13.242;2023-01-27T14:52:45;-12362.56;;;1.85;100.00
70925;BME280;58577;52.410;13.242;2023-01-27T14:55:46;-12362.91;;;1.87;100.00
70925;BME280;58577;52.410;13.242;2023-01-27T14:58:39;-12363.56;;;1.91;100.00
70925;BME280;58577;52.410;13.242;2023-01-27T15:27:27;-12364.38;;;1.95;100.00
70925;BME280;58577;52.410;13.242;2023-01-27T15:36:38;-12362.56;;;1.85;100.00
70925;BME280;58577;52.410;13.242;2023-01-27T15:39:25;-12361.47;;;1.79;100.00
70925;BME280;58577;52.410;13.242;2023-01-27T15:42:11;-12361.75;;;1.81;100.00
70925;BME280;58577;52.410;13.242;2023-01-27T15:44:59;-12363.09;;;1.88;100.00
70925;BME280;58577;52.410;13.242;2023-01-27T15:47:45;-12361.56;;;1.80;100.00
70925;BME280;58577;52.410;13.242;2023-01-27T15:50:35;-12362.09;;;1.83;100.00
70925;BME280;58577;52.410;13.242;2023-01-27T15:53:30;-12361.19;;;1.77;100.00
70925;BME280;58577;52.410;13.242;2023-01-27T15:56:17;-12362.81;;;1.87;100.00
70925;BME280;58577;52.410;13.242;2023-01-27T15:59:04;-12362.09;;;1.83;100.00
70925;BME280;58577;52.410;13.242;2023-01-27T16:02:27;-12362.00;;;1.82;100.00
70925;BME280;58577;52.410;13.242;2023-01-27T16:05:20;-12362.81;;;1.87;100.00
70925;BME280;58577;52.410;13.242;2023-01-27T16:08:11;-12364.09;;;1.94;100.00
70925;BME280;58577;52.410;13.242;2023-01-27T16:12:00;-12362.38;;;1.84;100.00
70925;BME280;58577;52.410;13.242;2023-01-27T16:14:38;-12361.75;;;1.81;100.00
70925;BME280;58577;52.410;13.242;2023-01-27T16:17:24;-12362.66;;;1.86;100.00
70925;BME280;58577;52.410;13.242;2023-01-27T16:20:20;-12362.47;;;1.85;100.00
70925;BME280;58577;52.410;13.242;2023-01-27T16:23:18;-12361.81;;;1.81;100.00
70925;BME280;58577;52.410;13.242;2023-01-27T16:26:21;-12362.47;;;1.85;100.00
70925;BME280;58577;52.410;13.242;2023-01-27T16:29:19;-12361.09;;;1.77;100.00
70925;BME280;58577;52.410;13.242;2023-01-27T16:32:16;-12361.09;;;1.77;98.88
70925;BME280;58577;52.410;13.242;2023-01-27T16:35:05;-12362.47;;;1.85;99.52
70925;BME280;58577;52.410;13.242;2023-01-27T16:38:12;-12361.38;;;1.79;98.55
70925;BME280;58577;52.410;13.242;2023-01-27T16:41:02;-12363.09;;;1.88;97.87